Airport ID:KTME
Update Time (UTC):22 MAY 17 17:10
Wind Speed (Knots):8
Wind Direction (Magnetic):340
Temperature (°C):20
Dew Point (°C):20
Humidity (%):98
Altimeter (inHg):29.98
Density Altitude (Feet):
Visibility (Miles):1
Clouds (Hundreds of feet):BKN005 OVC013
Present Weather:RAIN
METAR:METAR KTME 221710Z AUTO 34008KT 1 1/4SM -RA BKN005 BKN013 20/20 A2998 RMK AO2

The data displayed is for advisory purposes only and is not to be used for flight planning or operations.

This page is not automatically refreshed. Reload the page to see current data.